Time,TemperatureF,DewpointF,PressureIn,WindDirection,WindDirectionDegrees,WindSpeedMPH,WindSpeedGustMPH,Humidity,HourlyPrecipIn,Conditions,Clouds,dailyrainin,SoftwareType,DateUTC
2014-01-13 00:00:00,48.8,46.3,30.49,North,0,0.0,0.0,91,0.00,,,0.00,WUHU216HW,2014-01-13 08:00:00,
2014-01-13 00:05:00,48.8,46.3,30.49,North,0,0.0,0.0,91,0.00,,,0.00,WUHU216HW,2014-01-13 08:05:00,
2014-01-13 00:30:00,48.6,46.2,30.50,North,0,0.0,0.0,91,0.00,,,0.00,WUHU216HW,2014-01-13 08:30:00,
2014-01-13 00:35:00,48.6,46.2,30.50,North,0,0.0,0.0,91,0.00,,,0.00,WUHU216HW,2014-01-13 08:35:00,
2014-01-13 01:00:00,48.8,46.3,30.51,North,0,0.0,0.0,91,0.00,,,0.00,WUHU216HW,2014-01-13 09:00:00,
2014-01-13 01:05:00,48.8,46.3,30.51,North,0,0.0,0.0,91,0.00,,,0.00,WUHU216HW,2014-01-13 09:05:00,
2014-01-13 01:30:00,48.8,46.0,30.52,North,0,0.0,0.0,90,0.00,,,0.00,WUHU216HW,2014-01-13 09:30:00,
2014-01-13 01:35:00,48.8,46.0,30.52,North,0,0.0,0.0,90,0.00,,,0.00,WUHU216HW,2014-01-13 09:35:00,
2014-01-13 02:00:00,48.8,46.0,30.52,North,0,0.0,0.0,90,0.00,,,0.00,WUHU216HW,2014-01-13 10:00:00,
2014-01-13 02:05:00,48.8,46.0,30.52,North,0,0.0,0.0,90,0.00,,,0.00,WUHU216HW,2014-01-13 10:05:00,
2014-01-13 02:30:00,48.8,46.0,30.53,North,0,0.0,0.0,90,0.00,,,0.00,WUHU216HW,2014-01-13 10:30:00,
2014-01-13 02:35:00,48.8,46.0,30.53,North,0,0.0,0.0,90,0.00,,,0.00,WUHU216HW,2014-01-13 10:35:00,
2014-01-13 03:00:00,49.0,45.9,30.53,North,0,0.0,0.0,89,0.00,,,0.00,WUHU216HW,2014-01-13 11:00:00,
2014-01-13 03:05:00,49.0,45.9,30.53,North,0,0.0,0.0,89,0.00,,,0.00,WUHU216HW,2014-01-13 11:05:00,
2014-01-13 03:10:00,49.0,45.9,30.53,North,0,0.0,0.0,89,0.00,,,0.00,WUHU216HW,2014-01-13 11:10:00,
2014-01-13 03:30:00,49.3,45.9,30.54,North,0,0.0,0.0,88,0.00,,,0.00,WUHU216HW,2014-01-13 11:30:00,
2014-01-13 03:35:00,49.3,45.9,30.54,North,0,0.0,0.0,88,0.00,,,0.00,WUHU216HW,2014-01-13 11:35:00,
2014-01-13 04:00:00,49.7,45.6,30.55,North,0,0.0,0.0,86,0.00,,,0.00,WUHU216HW,2014-01-13 12:00:00,
2014-01-13 04:05:00,49.7,45.6,30.55,North,0,0.0,0.0,86,0.00,,,0.00,WUHU216HW,2014-01-13 12:05:00,
2014-01-13 04:30:00,49.9,44.6,30.57,North,0,0.0,0.0,82,0.00,,,0.00,WUHU216HW,2014-01-13 12:30:00,
2014-01-13 04:35:00,49.9,44.6,30.57,North,0,0.0,0.0,82,0.00,,,0.00,WUHU216HW,2014-01-13 12:35:00,
2014-01-13 05:00:00,49.7,45.0,30.58,North,0,0.0,0.0,84,0.00,,,0.00,WUHU216HW,2014-01-13 13:00:00,
2014-01-13 05:04:00,49.7,45.0,30.58,North,0,0.0,0.0,84,0.00,,,0.00,WUHU216HW,2014-01-13 13:04:00,
2014-01-13 05:30:00,48.6,44.6,30.57,North,0,0.0,0.0,86,0.00,,,0.00,WUHU216HW,2014-01-13 13:30:00,
2014-01-13 05:35:00,48.6,44.6,30.57,North,0,0.0,0.0,86,0.00,,,0.00,WUHU216HW,2014-01-13 13:35:00,
2014-01-13 06:00:00,48.6,45.2,30.58,North,0,0.0,0.0,88,0.00,,,0.00,WUHU216HW,2014-01-13 14:00:00,
2014-01-13 06:04:00,48.6,45.2,30.58,North,0,0.0,0.0,88,0.00,,,0.00,WUHU216HW,2014-01-13 14:04:00,
2014-01-13 06:30:00,48.4,45.1,30.58,North,0,0.0,0.0,88,0.00,,,0.00,WUHU216HW,2014-01-13 14:30:00,
2014-01-13 06:35:00,48.4,45.1,30.58,North,0,0.0,0.0,88,0.00,,,0.00,WUHU216HW,2014-01-13 14:35:00,
2014-01-13 07:00:00,48.1,44.7,30.58,North,0,0.0,0.0,88,0.00,,,0.00,WUHU216HW,2014-01-13 15:00:00,
2014-01-13 07:04:00,48.1,44.7,30.58,North,0,0.0,0.0,88,0.00,,,0.00,WUHU216HW,2014-01-13 15:04:00,
2014-01-13 07:30:00,48.4,45.1,30.58,North,0,0.0,0.0,88,0.00,,,0.00,WUHU216HW,2014-01-13 15:30:00,
2014-01-13 07:35:00,48.4,45.1,30.58,North,0,0.0,0.0,88,0.00,,,0.00,WUHU216HW,2014-01-13 15:35:00,
2014-01-13 08:00:00,49.0,45.5,30.61,North,0,0.0,0.0,88,0.00,,,0.00,WUHU216HW,2014-01-13 16:00:00,
2014-01-13 08:04:00,49.0,45.5,30.61,North,0,0.0,0.0,88,0.00,,,0.00,WUHU216HW,2014-01-13 16:04:00,
2014-01-13 08:30:00,49.1,45.7,30.62,North,0,0.0,0.0,88,0.00,,,0.00,WUHU216HW,2014-01-13 16:30:00,
2014-01-13 08:35:00,49.1,45.7,30.62,North,0,0.0,0.0,88,0.00,,,0.00,WUHU216HW,2014-01-13 16:35:00,
2014-01-13 09:00:00,49.5,46.1,30.63,North,0,0.0,0.0,88,0.00,,,0.00,WUHU216HW,2014-01-13 17:00:00,
2014-01-13 09:05:00,49.5,46.1,30.63,North,0,0.0,0.0,88,0.00,,,0.00,WUHU216HW,2014-01-13 17:05:00,
2014-01-13 09:30:00,49.9,46.1,30.65,North,0,0.0,0.0,87,0.00,,,0.00,WUHU216HW,2014-01-13 17:30:00,
2014-01-13 09:35:00,49.9,46.1,30.65,North,0,0.0,0.0,87,0.00,,,0.00,WUHU216HW,2014-01-13 17:35:00,
2014-01-13 10:00:00,49.9,46.4,30.65,North,0,0.0,0.0,88,0.00,,,0.00,WUHU216HW,2014-01-13 18:00:00,
2014-01-13 10:04:00,49.9,46.4,30.65,North,0,0.0,0.0,88,0.00,,,0.00,WUHU216HW,2014-01-13 18:04:00,
2014-01-13 10:30:00,49.5,46.4,30.66,North,0,0.0,0.0,89,0.00,,,0.00,WUHU216HW,2014-01-13 18:30:00,
2014-01-13 10:35:00,49.5,46.4,30.66,North,0,0.0,0.0,89,0.00,,,0.00,WUHU216HW,2014-01-13 18:35:00,
2014-01-13 11:00:00,49.3,46.5,30.67,North,0,0.0,0.0,90,0.00,,,0.00,WUHU216HW,2014-01-13 19:00:00,
2014-01-13 11:05:00,49.3,46.5,30.67,North,0,0.0,0.0,90,0.00,,,0.00,WUHU216HW,2014-01-13 19:05:00,
2014-01-13 11:30:00,49.7,46.3,30.68,North,0,0.0,0.0,88,0.00,,,0.00,WUHU216HW,2014-01-13 19:30:00,
2014-01-13 11:35:00,49.7,46.3,30.68,North,0,0.0,0.0,88,0.00,,,0.00,WUHU216HW,2014-01-13 19:35:00,
2014-01-13 12:00:00,50.0,46.5,30.68,North,0,0.0,0.0,88,0.00,,,0.00,WUHU216HW,2014-01-13 20:00:00,
2014-01-13 12:05:00,50.0,46.5,30.68,North,0,0.0,0.0,88,0.00,,,0.00,WUHU216HW,2014-01-13 20:05:00,
2014-01-13 12:30:00,50.2,46.5,30.69,North,0,0.0,0.0,87,0.00,,,0.00,WUHU216HW,2014-01-13 20:30:00,
2014-01-13 12:35:00,50.2,46.5,30.69,North,0,0.0,0.0,87,0.00,,,0.00,WUHU216HW,2014-01-13 20:35:00,
2014-01-13 13:00:00,50.8,47.3,30.69,North,0,0.0,0.0,88,0.00,,,0.00,WUHU216HW,2014-01-13 21:00:00,
2014-01-13 13:05:00,50.8,47.3,30.69,North,0,0.0,0.0,88,0.00,,,0.00,WUHU216HW,2014-01-13 21:05:00,
2014-01-13 13:30:00,51.5,48.3,30.70,North,0,0.0,0.0,89,0.00,,,0.00,WUHU216HW,2014-01-13 21:30:00,
2014-01-13 13:35:00,51.5,48.3,30.70,North,0,0.0,0.0,89,0.00,,,0.00,WUHU216HW,2014-01-13 21:35:00,
2014-01-13 14:00:00,50.9,47.4,30.70,North,0,0.0,0.0,88,0.00,,,0.00,WUHU216HW,2014-01-13 22:00:00,
2014-01-13 14:05:00,50.9,47.4,30.70,North,0,0.0,0.0,88,0.00,,,0.00,WUHU216HW,2014-01-13 22:05:00,
2014-01-13 14:30:00,51.1,47.6,30.72,North,0,0.0,0.0,88,0.00,,,0.00,WUHU216HW,2014-01-13 22:30:00,
2014-01-13 14:35:00,51.1,47.6,30.72,North,0,0.0,0.0,88,0.00,,,0.00,WUHU216HW,2014-01-13 22:35:00,
2014-01-13 15:00:00,51.1,47.4,30.73,North,0,0.0,0.0,87,0.00,,,0.00,WUHU216HW,2014-01-13 23:00:00,
2014-01-13 15:05:00,51.1,47.4,30.73,North,0,0.0,0.0,87,0.00,,,0.00,WUHU216HW,2014-01-13 23:05:00,
2014-01-13 15:30:00,51.1,47.4,30.75,North,0,0.0,0.0,87,0.00,,,0.00,WUHU216HW,2014-01-13 23:30:00,
2014-01-13 15:35:00,51.1,47.4,30.75,North,0,0.0,0.0,87,0.00,,,0.00,WUHU216HW,2014-01-13 23:35:00,
2014-01-13 16:00:00,50.9,47.4,30.75,North,0,0.0,0.0,88,0.00,,,0.00,WUHU216HW,2014-01-14 00:00:00,
2014-01-13 16:04:00,50.9,47.4,30.75,North,0,0.0,0.0,88,0.00,,,0.00,WUHU216HW,2014-01-14 00:04:00,
2014-01-13 16:30:00,50.6,46.8,30.77,North,0,0.0,0.0,87,0.00,,,0.00,WUHU216HW,2014-01-14 00:30:00,
2014-01-13 16:35:00,50.6,46.8,30.77,North,0,0.0,0.0,87,0.00,,,0.00,WUHU216HW,2014-01-14 00:35:00,
2014-01-13 17:00:00,50.4,46.6,30.78,North,0,0.0,0.0,87,0.00,,,0.00,WUHU216HW,2014-01-14 01:00:00,
2014-01-13 17:05:00,50.4,46.6,30.78,North,0,0.0,0.0,87,0.00,,,0.00,WUHU216HW,2014-01-14 01:05:00,
2014-01-13 17:29:00,50.4,46.6,30.78,North,0,0.0,0.0,87,0.00,,,0.00,WUHU216HW,2014-01-14 01:29:00,
2014-01-13 17:30:00,50.4,46.6,30.78,North,0,0.0,0.0,87,0.00,,,0.00,WUHU216HW,2014-01-14 01:30:00,
2014-01-13 17:35:00,50.4,46.6,30.78,North,0,0.0,0.0,87,0.00,,,0.00,WUHU216HW,2014-01-14 01:35:00,
2014-01-13 18:00:00,50.4,46.6,30.79,North,0,0.0,0.0,87,0.00,,,0.00,WUHU216HW,2014-01-14 02:00:00,
2014-01-13 18:05:00,50.4,46.6,30.79,North,0,0.0,0.0,87,0.00,,,0.00,WUHU216HW,2014-01-14 02:05:00,
2014-01-13 18:30:00,50.4,46.6,30.79,North,0,0.0,0.0,87,0.00,,,0.00,WUHU216HW,2014-01-14 02:30:00,
2014-01-13 18:35:00,50.4,46.6,30.79,North,0,0.0,0.0,87,0.00,,,0.00,WUHU216HW,2014-01-14 02:35:00,
2014-01-13 19:00:00,50.6,47.7,30.80,North,0,0.0,0.0,90,0.00,,,0.00,WUHU216HW,2014-01-14 03:00:00,
2014-01-13 19:05:00,50.6,47.7,30.80,North,0,0.0,0.0,90,0.00,,,0.00,WUHU216HW,2014-01-14 03:05:00,
2014-01-13 19:30:00,50.2,47.3,30.81,North,0,0.0,0.0,90,0.00,,,0.00,WUHU216HW,2014-01-14 03:30:00,
2014-01-13 19:35:00,50.2,47.3,30.81,North,0,0.0,0.0,90,0.00,,,0.00,WUHU216HW,2014-01-14 03:35:00,
2014-01-13 20:00:00,50.6,47.4,30.82,North,0,0.0,0.0,89,0.00,,,0.00,WUHU216HW,2014-01-14 04:00:00,
2014-01-13 20:04:00,50.6,47.4,30.82,North,0,0.0,0.0,89,0.00,,,0.00,WUHU216HW,2014-01-14 04:04:00,
2014-01-13 20:29:00,49.7,46.5,30.83,North,0,0.0,0.0,89,0.00,,,0.00,WUHU216HW,2014-01-14 04:29:00,
2014-01-13 20:30:00,49.7,46.5,30.83,North,0,0.0,0.0,89,0.00,,,0.00,WUHU216HW,2014-01-14 04:30:00,
2014-01-13 20:35:00,49.7,46.5,30.83,North,0,0.0,0.0,89,0.00,,,0.00,WUHU216HW,2014-01-14 04:35:00,
2014-01-13 20:59:00,49.7,46.8,30.83,North,0,0.0,0.0,90,0.00,,,0.00,WUHU216HW,2014-01-14 04:59:00,
2014-01-13 21:00:00,49.7,46.8,30.83,North,0,0.0,0.0,90,0.00,,,0.00,WUHU216HW,2014-01-14 05:00:00,
2014-01-13 21:01:00,49.7,46.8,30.83,North,0,0.0,0.0,90,0.00,,,0.00,WUHU216HW,2014-01-14 05:01:00,
2014-01-13 21:02:00,49.7,46.8,30.83,North,0,0.0,0.0,90,0.00,,,0.00,WUHU216HW,2014-01-14 05:02:00,
2014-01-13 21:07:00,49.7,46.8,30.83,North,0,0.0,0.0,90,0.00,,,0.00,WUHU216HW,2014-01-14 05:07:00,
2014-01-13 21:30:00,49.3,46.5,30.84,North,0,0.0,0.0,90,0.00,,,0.00,WUHU216HW,2014-01-14 05:30:00,
2014-01-13 21:35:00,49.3,46.5,30.84,North,0,0.0,0.0,90,0.00,,,0.00,WUHU216HW,2014-01-14 05:35:00,
2014-01-13 21:59:00,49.1,46.4,30.85,North,0,0.0,0.0,90,0.00,,,0.00,WUHU216HW,2014-01-14 05:59:00,
2014-01-13 22:00:00,49.1,46.4,30.85,North,0,0.0,0.0,90,0.00,,,0.00,WUHU216HW,2014-01-14 06:00:00,
2014-01-13 22:05:00,49.1,46.4,30.85,North,0,0.0,0.0,90,0.00,,,0.00,WUHU216HW,2014-01-14 06:05:00,
2014-01-13 22:30:00,49.1,46.4,30.85,North,0,0.0,0.0,90,0.00,,,0.00,WUHU216HW,2014-01-14 06:30:00,
2014-01-13 22:35:00,49.1,46.4,30.85,North,0,0.0,0.0,90,0.00,,,0.00,WUHU216HW,2014-01-14 06:35:00,
2014-01-13 22:38:00,49.1,46.4,30.85,North,0,0.0,0.0,90,0.00,,,0.00,WUHU216HW,2014-01-14 06:38:00,
2014-01-13 23:00:00,49.1,46.4,30.85,North,0,0.0,0.0,90,0.00,,,0.00,WUHU216HW,2014-01-14 07:00:00,
2014-01-13 23:04:00,49.1,46.4,30.85,North,0,0.0,0.0,90,0.00,,,0.00,WUHU216HW,2014-01-14 07:04:00,
2014-01-13 23:30:00,49.3,46.5,30.86,North,0,0.0,0.0,90,0.00,,,0.00,WUHU216HW,2014-01-14 07:30:00,
2014-01-13 23:35:00,49.3,46.5,30.86,North,0,0.0,0.0,90,0.00,,,0.00,WUHU216HW,2014-01-14 07:35:00,
2014-01-13 23:59:00,49.1,46.4,30.86,North,0,0.0,0.0,90,0.00,,,0.00,WUHU216HW,2014-01-14 07:59:00,